sensor_id;sensor_type;location;lat;lon;timestamp;P1;durP1;ratioP1;P2;durP2;ratioP2
23360;SDS011;11852;50.082;18.554;2023-01-09T00:00:54;37.3;;;22.9;;
23360;SDS011;11852;50.082;18.554;2023-01-09T00:02:01;37.0;;;22.3;;
23360;SDS011;11852;50.082;18.554;2023-01-09T00:03:08;37.2;;;23.1;;
23360;SDS011;11852;50.082;18.554;2023-01-09T00:04:15;39.0;;;23.8;;
23360;SDS011;11852;50.082;18.554;2023-01-09T00:05:23;39.0;;;23.3;;
23360;SDS011;11852;50.082;18.554;2023-01-09T00:06:30;36.5;;;23.1;;
23360;SDS011;11852;50.082;18.554;2023-01-09T00:07:37;38.2;;;23.0;;
23360;SDS011;11852;50.082;18.554;2023-01-09T00:08:44;37.5;;;22.7;;
23360;SDS011;11852;50.082;18.554;2023-01-09T00:09:51;36.6;;;23.4;;
23360;SDS011;11852;50.082;18.554;2023-01-09T00:10:58;34.5;;;22.4;;
23360;SDS011;11852;50.082;18.554;2023-01-09T00:12:05;40.1;;;24.5;;
23360;SDS011;11852;50.082;18.554;2023-01-09T00:13:13;35.2;;;22.1;;
23360;SDS011;11852;50.082;18.554;2023-01-09T00:14:20;34.5;;;22.4;;
23360;SDS011;11852;50.082;18.554;2023-01-09T00:15:27;37.4;;;22.3;;
23360;SDS011;11852;50.082;18.554;2023-01-09T00:16:34;35.6;;;22.5;;
23360;SDS011;11852;50.082;18.554;2023-01-09T00:17:41;33.7;;;21.2;;
23360;SDS011;11852;50.082;18.554;2023-01-09T00:18:48;37.4;;;22.6;;
23360;SDS011;11852;50.082;18.554;2023-01-09T00:19:55;40.7;;;22.7;;
23360;SDS011;11852;50.082;18.554;2023-01-09T00:21:03;39.5;;;22.7;;
23360;SDS011;11852;50.082;18.554;2023-01-09T00:22:09;39.8;;;23.6;;
23360;SDS011;11852;50.082;18.554;2023-01-09T00:23:17;38.6;;;23.5;;
23360;SDS011;11852;50.082;18.554;2023-01-09T00:24:24;36.2;;;22.9;;
23360;SDS011;11852;50.082;18.554;2023-01-09T00:25:31;33.9;;;20.8;;
23360;SDS011;11852;50.082;18.554;2023-01-09T00:26:38;35.3;;;21.9;;
23360;SDS011;11852;50.082;18.554;2023-01-09T00:27:46;35.8;;;21.7;;
23360;SDS011;11852;50.082;18.554;2023-01-09T00:28:53;32.1;;;21.1;;
23360;SDS011;11852;50.082;18.554;2023-01-09T00:30:00;34.8;;;22.6;;
23360;SDS011;11852;50.082;18.554;2023-01-09T00:31:07;36.7;;;23.5;;
23360;SDS011;11852;50.082;18.554;2023-01-09T00:32:14;34.7;;;22.1;;
23360;SDS011;11852;50.082;18.554;2023-01-09T00:33:23;34.1;;;21.2;;
23360;SDS011;11852;50.082;18.554;2023-01-09T00:34:29;36.2;;;22.5;;
23360;SDS011;11852;50.082;18.554;2023-01-09T00:35:36;32.4;;;20.6;;
23360;SDS011;11852;50.082;18.554;2023-01-09T00:36:43;35.0;;;22.1;;
23360;SDS011;11852;50.082;18.554;2023-01-09T00:37:50;33.0;;;20.9;;
23360;SDS011;11852;50.082;18.554;2023-01-09T00:38:57;30.6;;;20.1;;
23360;SDS011;11852;50.082;18.554;2023-01-09T00:40:05;31.9;;;21.4;;
23360;SDS011;11852;50.082;18.554;2023-01-09T00:41:16;31.8;;;21.4;;
23360;SDS011;11852;50.082;18.554;2023-01-09T00:42:23;31.8;;;21.2;;
23360;SDS011;11852;50.082;18.554;2023-01-09T00:43:30;31.6;;;21.8;;
23360;SDS011;11852;50.082;18.554;2023-01-09T00:44:38;31.7;;;21.9;;
23360;SDS011;11852;50.082;18.554;2023-01-09T00:45:44;31.6;;;21.6;;
23360;SDS011;11852;50.082;18.554;2023-01-09T00:46:53;29.5;;;20.7;;
23360;SDS011;11852;50.082;18.554;2023-01-09T00:48:01;31.6;;;20.6;;
23360;SDS011;11852;50.082;18.554;2023-01-09T00:49:05;32.9;;;21.1;;
23360;SDS011;11852;50.082;18.554;2023-01-09T00:50:13;31.9;;;22.1;;
23360;SDS011;11852;50.082;18.554;2023-01-09T00:51:19;31.8;;;21.7;;
23360;SDS011;11852;50.082;18.554;2023-01-09T00:52:26;30.7;;;20.2;;
23360;SDS011;11852;50.082;18.554;2023-01-09T00:53:35;32.2;;;21.5;;
23360;SDS011;11852;50.082;18.554;2023-01-09T00:54:41;30.1;;;21.0;;
23360;SDS011;11852;50.082;18.554;2023-01-09T00:55:48;31.1;;;22.1;;
23360;SDS011;11852;50.082;18.554;2023-01-09T00:56:56;31.5;;;22.2;;
23360;SDS011;11852;50.082;18.554;2023-01-09T00:58:03;29.0;;;19.9;;
23360;SDS011;11852;50.082;18.554;2023-01-09T00:59:11;28.7;;;19.3;;
23360;SDS011;11852;50.082;18.554;2023-01-09T01:00:18;30.5;;;21.1;;
23360;SDS011;11852;50.082;18.554;2023-01-09T01:01:25;31.8;;;20.4;;
23360;SDS011;11852;50.082;18.554;2023-01-09T01:02:32;28.6;;;18.8;;
23360;SDS011;11852;50.082;18.554;2023-01-09T01:03:39;31.1;;;20.1;;
23360;SDS011;11852;50.082;18.554;2023-01-09T01:04:51;32.0;;;21.2;;
23360;SDS011;11852;50.082;18.554;2023-01-09T01:06:04;32.6;;;21.7;;
23360;SDS011;11852;50.082;18.554;2023-01-09T01:07:16;30.2;;;20.7;;
23360;SDS011;11852;50.082;18.554;2023-01-09T01:08:23;29.6;;;20.1;;
23360;SDS011;11852;50.082;18.554;2023-01-09T01:09:30;30.6;;;20.3;;
23360;SDS011;11852;50.082;18.554;2023-01-09T01:10:37;30.6;;;19.9;;
23360;SDS011;11852;50.082;18.554;2023-01-09T01:11:45;31.6;;;21.5;;
23360;SDS011;11852;50.082;18.554;2023-01-09T01:12:52;32.4;;;22.8;;
23360;SDS011;11852;50.082;18.554;2023-01-09T01:14:00;32.9;;;22.4;;
23360;SDS011;11852;50.082;18.554;2023-01-09T01:15:07;33.3;;;22.5;;
23360;SDS011;11852;50.082;18.554;2023-01-09T01:16:14;34.2;;;23.0;;
23360;SDS011;11852;50.082;18.554;2023-01-09T01:17:21;29.9;;;20.6;;
23360;SDS011;11852;50.082;18.554;2023-01-09T01:18:28;34.1;;;22.7;;
23360;SDS011;11852;50.082;18.554;2023-01-09T01:19:35;33.0;;;22.4;;
23360;SDS011;11852;50.082;18.554;2023-01-09T01:20:43;32.5;;;22.1;;
23360;SDS011;11852;50.082;18.554;2023-01-09T01:21:50;31.6;;;22.3;;
23360;SDS011;11852;50.082;18.554;2023-01-09T01:22:57;33.3;;;22.2;;
23360;SDS011;11852;50.082;18.554;2023-01-09T01:24:04;32.2;;;22.2;;
23360;SDS011;11852;50.082;18.554;2023-01-09T01:25:12;33.2;;;22.7;;
23360;SDS011;11852;50.082;18.554;2023-01-09T01:26:18;32.8;;;22.2;;
23360;SDS011;11852;50.082;18.554;2023-01-09T01:27:26;31.9;;;21.9;;
23360;SDS011;11852;50.082;18.554;2023-01-09T01:28:33;29.5;;;19.7;;
23360;SDS011;11852;50.082;18.554;2023-01-09T01:29:40;30.6;;;20.9;;
23360;SDS011;11852;50.082;18.554;2023-01-09T01:30:47;30.1;;;21.6;;
23360;SDS011;11852;50.082;18.554;2023-01-09T01:31:54;30.3;;;20.4;;
23360;SDS011;11852;50.082;18.554;2023-01-09T01:33:01;28.9;;;21.0;;
23360;SDS011;11852;50.082;18.554;2023-01-09T01:34:09;31.2;;;21.9;;
23360;SDS011;11852;50.082;18.554;2023-01-09T01:35:16;28.5;;;19.8;;
23360;SDS011;11852;50.082;18.554;2023-01-09T01:36:23;30.2;;;20.4;;
23360;SDS011;11852;50.082;18.554;2023-01-09T01:37:30;29.1;;;20.9;;
23360;SDS011;11852;50.082;18.554;2023-01-09T01:38:37;30.4;;;21.8;;
23360;SDS011;11852;50.082;18.554;2023-01-09T01:39:45;32.2;;;21.5;;
23360;SDS011;11852;50.082;18.554;2023-01-09T01:40:52;31.1;;;21.1;;
23360;SDS011;11852;50.082;18.554;2023-01-09T01:41:59;30.3;;;21.7;;
23360;SDS011;11852;50.082;18.554;2023-01-09T01:43:08;30.4;;;20.8;;
23360;SDS011;11852;50.082;18.554;2023-01-09T01:45:29;29.1;;;20.8;;
23360;SDS011;11852;50.082;18.554;2023-01-09T01:46:36;28.4;;;20.5;;
23360;SDS011;11852;50.082;18.554;2023-01-09T01:49:03;30.1;;;21.4;;
23360;SDS011;11852;50.082;18.554;2023-01-09T01:50:18;29.8;;;21.3;;
23360;SDS011;11852;50.082;18.554;2023-01-09T01:51:21;33.0;;;21.5;;
23360;SDS011;11852;50.082;18.554;2023-01-09T01:52:29;30.7;;;20.9;;
23360;SDS011;11852;50.082;18.554;2023-01-09T01:53:37;28.1;;;19.4;;
23360;SDS011;11852;50.082;18.554;2023-01-09T01:54:43;29.6;;;20.4;;
23360;SDS011;11852;50.082;18.554;2023-01-09T01:57:03;30.6;;;21.1;;
23360;SDS011;11852;50.082;18.554;2023-01-09T01:58:11;30.5;;;21.2;;
23360;SDS011;11852;50.082;18.554;2023-01-09T02:00:31;29.2;;;20.7;;
23360;SDS011;11852;50.082;18.554;2023-01-09T02:01:37;29.1;;;20.5;;
23360;SDS011;11852;50.082;18.554;2023-01-09T02:02:44;27.7;;;20.1;;
23360;SDS011;11852;50.082;18.554;2023-01-09T02:03:56;27.7;;;20.1;;
23360;SDS011;11852;50.082;18.554;2023-01-09T02:05:03;27.7;;;20.1;;
23360;SDS011;11852;50.082;18.554;2023-01-09T02:06:11;27.1;;;18.7;;
23360;SDS011;11852;50.082;18.554;2023-01-09T02:07:17;27.8;;;19.0;;
23360;SDS011;11852;50.082;18.554;2023-01-09T02:08:25;29.4;;;20.2;;
23360;SDS011;11852;50.082;18.554;2023-01-09T02:09:32;29.1;;;20.5;;
23360;SDS011;11852;50.082;18.554;2023-01-09T02:10:39;27.5;;;18.8;;
23360;SDS011;11852;50.082;18.554;2023-01-09T02:11:46;27.6;;;19.3;;
23360;SDS011;11852;50.082;18.554;2023-01-09T02:12:53;29.2;;;20.4;;
23360;SDS011;11852;50.082;18.554;2023-01-09T02:14:00;26.2;;;18.2;;
23360;SDS011;11852;50.082;18.554;2023-01-09T02:15:08;25.9;;;18.0;;
23360;SDS011;11852;50.082;18.554;2023-01-09T02:18:57;24.5;;;16.9;;
23360;SDS011;11852;50.082;18.554;2023-01-09T02:21:21;24.5;;;17.6;;
23360;SDS011;11852;50.082;18.554;2023-01-09T02:27:45;23.0;;;16.7;;
23360;SDS011;11852;50.082;18.554;2023-01-09T02:31:12;24.0;;;17.1;;
23360;SDS011;11852;50.082;18.554;2023-01-09T02:34:52;24.8;;;17.6;;
23360;SDS011;11852;50.082;18.554;2023-01-09T02:38:33;22.9;;;16.1;;
23360;SDS011;11852;50.082;18.554;2023-01-09T02:41:01;24.4;;;17.4;;
23360;SDS011;11852;50.082;18.554;2023-01-09T02:42:11;25.4;;;18.0;;
23360;SDS011;11852;50.082;18.554;2023-01-09T02:43:19;26.4;;;17.0;;
23360;SDS011;11852;50.082;18.554;2023-01-09T02:44:27;25.4;;;17.9;;
23360;SDS011;11852;50.082;18.554;2023-01-09T02:45:33;25.4;;;17.6;;
23360;SDS011;11852;50.082;18.554;2023-01-09T02:46:41;25.0;;;17.8;;
23360;SDS011;11852;50.082;18.554;2023-01-09T02:47:47;26.4;;;19.0;;
23360;SDS011;11852;50.082;18.554;2023-01-09T02:48:55;25.2;;;18.0;;
23360;SDS011;11852;50.082;18.554;2023-01-09T02:50:03;25.7;;;17.6;;
23360;SDS011;11852;50.082;18.554;2023-01-09T02:51:13;26.4;;;18.0;;
23360;SDS011;11852;50.082;18.554;2023-01-09T03:02:33;25.2;;;18.2;;
23360;SDS011;11852;50.082;18.554;2023-01-09T03:06:14;26.0;;;18.3;;
23360;SDS011;11852;50.082;18.554;2023-01-09T03:09:46;24.5;;;17.3;;
23360;SDS011;11852;50.082;18.554;2023-01-09T03:10:54;22.9;;;15.4;;
23360;SDS011;11852;50.082;18.554;2023-01-09T03:12:06;23.9;;;16.4;;
23360;SDS011;11852;50.082;18.554;2023-01-09T03:13:10;24.2;;;17.9;;
23360;SDS011;11852;50.082;18.554;2023-01-09T03:14:19;24.1;;;17.3;;
23360;SDS011;11852;50.082;18.554;2023-01-09T03:15:25;24.3;;;17.0;;
23360;SDS011;11852;50.082;18.554;2023-01-09T03:16:33;23.4;;;16.4;;
23360;SDS011;11852;50.082;18.554;2023-01-09T03:17:40;25.5;;;18.0;;
23360;SDS011;11852;50.082;18.554;2023-01-09T03:18:46;24.9;;;17.6;;
23360;SDS011;11852;50.082;18.554;2023-01-09T03:19:53;23.8;;;17.0;;
23360;SDS011;11852;50.082;18.554;2023-01-09T03:21:00;24.4;;;16.8;;
23360;SDS011;11852;50.082;18.554;2023-01-09T03:22:07;23.4;;;16.7;;
23360;SDS011;11852;50.082;18.554;2023-01-09T03:23:14;23.6;;;16.2;;
23360;SDS011;11852;50.082;18.554;2023-01-09T03:24:21;22.9;;;16.8;;
23360;SDS011;11852;50.082;18.554;2023-01-09T03:25:29;22.0;;;15.8;;
23360;SDS011;11852;50.082;18.554;2023-01-09T03:26:35;21.9;;;16.5;;
23360;SDS011;11852;50.082;18.554;2023-01-09T03:27:43;23.1;;;16.6;;
23360;SDS011;11852;50.082;18.554;2023-01-09T03:28:50;21.5;;;15.5;;
23360;SDS011;11852;50.082;18.554;2023-01-09T03:29:57;21.8;;;16.2;;
23360;SDS011;11852;50.082;18.554;2023-01-09T03:31:04;22.6;;;16.4;;
23360;SDS011;11852;50.082;18.554;2023-01-09T03:32:11;22.3;;;15.8;;
23360;SDS011;11852;50.082;18.554;2023-01-09T03:33:18;23.1;;;15.1;;
23360;SDS011;11852;50.082;18.554;2023-01-09T03:34:25;23.5;;;16.1;;
23360;SDS011;11852;50.082;18.554;2023-01-09T03:35:32;22.7;;;16.0;;
23360;SDS011;11852;50.082;18.554;2023-01-09T03:36:40;22.8;;;16.6;;
23360;SDS011;11852;50.082;18.554;2023-01-09T03:37:47;21.8;;;15.3;;
23360;SDS011;11852;50.082;18.554;2023-01-09T03:38:54;22.5;;;16.0;;
23360;SDS011;11852;50.082;18.554;2023-01-09T03:40:01;21.9;;;15.6;;
23360;SDS011;11852;50.082;18.554;2023-01-09T03:41:08;21.5;;;15.5;;
23360;SDS011;11852;50.082;18.554;2023-01-09T03:42:16;21.1;;;15.8;;
23360;SDS011;11852;50.082;18.554;2023-01-09T03:43:23;19.6;;;14.6;;
23360;SDS011;11852;50.082;18.554;2023-01-09T03:44:30;21.5;;;15.1;;
23360;SDS011;11852;50.082;18.554;2023-01-09T03:45:37;20.1;;;14.6;;
23360;SDS011;11852;50.082;18.554;2023-01-09T03:46:44;20.9;;;15.4;;
23360;SDS011;11852;50.082;18.554;2023-01-09T03:47:51;20.3;;;14.9;;
23360;SDS011;11852;50.082;18.554;2023-01-09T03:48:58;21.1;;;15.1;;
23360;SDS011;11852;50.082;18.554;2023-01-09T03:50:06;21.5;;;15.7;;
23360;SDS011;11852;50.082;18.554;2023-01-09T03:51:13;20.3;;;15.0;;
23360;SDS011;11852;50.082;18.554;2023-01-09T03:52:20;21.7;;;15.3;;
23360;SDS011;11852;50.082;18.554;2023-01-09T03:53:28;21.7;;;15.3;;
23360;SDS011;11852;50.082;18.554;2023-01-09T03:54:35;20.5;;;15.1;;
23360;SDS011;11852;50.082;18.554;2023-01-09T03:55:42;20.7;;;15.1;;
23360;SDS011;11852;50.082;18.554;2023-01-09T03:56:49;21.7;;;15.6;;
23360;SDS011;11852;50.082;18.554;2023-01-09T03:57:56;21.8;;;15.7;;
23360;SDS011;11852;50.082;18.554;2023-01-09T03:59:03;23.0;;;15.4;;
23360;SDS011;11852;50.082;18.554;2023-01-09T04:00:10;23.9;;;17.6;;
23360;SDS011;11852;50.082;18.554;2023-01-09T04:01:18;29.3;;;19.8;;
23360;SDS011;11852;50.082;18.554;2023-01-09T04:02:25;33.3;;;22.7;;
23360;SDS011;11852;50.082;18.554;2023-01-09T04:03:32;41.4;;;27.0;;
23360;SDS011;11852;50.082;18.554;2023-01-09T04:04:39;49.1;;;31.2;;
23360;SDS011;11852;50.082;18.554;2023-01-09T04:05:46;55.2;;;33.4;;
23360;SDS011;11852;50.082;18.554;2023-01-09T04:06:53;48.9;;;30.5;;
23360;SDS011;11852;50.082;18.554;2023-01-09T04:08:00;49.3;;;31.6;;
23360;SDS011;11852;50.082;18.554;2023-01-09T04:09:07;49.3;;;32.5;;
23360;SDS011;11852;50.082;18.554;2023-01-09T04:10:15;50.8;;;31.6;;
23360;SDS011;11852;50.082;18.554;2023-01-09T04:11:22;51.7;;;32.2;;
23360;SDS011;11852;50.082;18.554;2023-01-09T04:12:29;51.9;;;32.7;;
23360;SDS011;11852;50.082;18.554;2023-01-09T04:13:37;53.5;;;32.4;;
23360;SDS011;11852;50.082;18.554;2023-01-09T04:14:44;53.7;;;33.1;;
23360;SDS011;11852;50.082;18.554;2023-01-09T04:15:51;52.9;;;33.3;;
23360;SDS011;11852;50.082;18.554;2023-01-09T04:16:58;57.4;;;35.8;;
23360;SDS011;11852;50.082;18.554;2023-01-09T04:18:05;54.8;;;33.3;;
23360;SDS011;11852;50.082;18.554;2023-01-09T04:19:12;55.4;;;34.1;;
23360;SDS011;11852;50.082;18.554;2023-01-09T04:20:19;61.5;;;36.1;;
23360;SDS011;11852;50.082;18.554;2023-01-09T04:21:27;59.8;;;35.0;;
23360;SDS011;11852;50.082;18.554;2023-01-09T04:22:34;62.6;;;35.8;;
23360;SDS011;11852;50.082;18.554;2023-01-09T04:23:41;59.8;;;34.3;;
23360;SDS011;11852;50.082;18.554;2023-01-09T04:24:48;59.4;;;36.7;;
23360;SDS011;11852;50.082;18.554;2023-01-09T04:25:55;61.7;;;35.7;;
23360;SDS011;11852;50.082;18.554;2023-01-09T04:27:02;62.9;;;36.3;;
23360;SDS011;11852;50.082;18.554;2023-01-09T04:28:09;62.5;;;37.4;;
23360;SDS011;11852;50.082;18.554;2023-01-09T04:29:16;63.7;;;38.5;;
23360;SDS011;11852;50.082;18.554;2023-01-09T04:30:24;60.8;;;35.2;;
23360;SDS011;11852;50.082;18.554;2023-01-09T04:31:31;58.7;;;35.2;;
23360;SDS011;11852;50.082;18.554;2023-01-09T04:32:38;64.4;;;37.7;;
23360;SDS011;11852;50.082;18.554;2023-01-09T04:33:45;60.5;;;36.7;;
23360;SDS011;11852;50.082;18.554;2023-01-09T04:34:53;59.4;;;36.1;;
23360;SDS011;11852;50.082;18.554;2023-01-09T04:36:00;61.1;;;35.8;;
23360;SDS011;11852;50.082;18.554;2023-01-09T04:37:07;60.4;;;36.2;;
23360;SDS011;11852;50.082;18.554;2023-01-09T04:38:14;61.2;;;35.4;;
23360;SDS011;11852;50.082;18.554;2023-01-09T04:39:21;59.2;;;36.1;;
23360;SDS011;11852;50.082;18.554;2023-01-09T04:40:28;56.0;;;34.8;;
23360;SDS011;11852;50.082;18.554;2023-01-09T04:41:41;57.3;;;35.6;;
23360;SDS011;11852;50.082;18.554;2023-01-09T04:42:48;58.2;;;36.1;;
23360;SDS011;11852;50.082;18.554;2023-01-09T04:43:55;55.3;;;33.6;;
23360;SDS011;11852;50.082;18.554;2023-01-09T04:45:02;57.0;;;35.5;;
23360;SDS011;11852;50.082;18.554;2023-01-09T04:46:09;55.2;;;35.1;;
23360;SDS011;11852;50.082;18.554;2023-01-09T04:47:16;54.1;;;33.4;;
23360;SDS011;11852;50.082;18.554;2023-01-09T04:48:23;52.5;;;32.4;;
23360;SDS011;11852;50.082;18.554;2023-01-09T04:49:30;51.8;;;32.5;;
23360;SDS011;11852;50.082;18.554;2023-01-09T04:50:38;52.4;;;32.4;;
23360;SDS011;11852;50.082;18.554;2023-01-09T04:51:45;51.5;;;33.1;;
23360;SDS011;11852;50.082;18.554;2023-01-09T04:52:52;51.4;;;31.1;;
23360;SDS011;11852;50.082;18.554;2023-01-09T04:53:59;49.9;;;31.2;;
23360;SDS011;11852;50.082;18.554;2023-01-09T04:55:06;48.5;;;30.2;;
23360;SDS011;11852;50.082;18.554;2023-01-09T04:56:13;48.3;;;30.5;;
23360;SDS011;11852;50.082;18.554;2023-01-09T04:57:20;48.3;;;30.5;;
23360;SDS011;11852;50.082;18.554;2023-01-09T04:58:27;48.8;;;30.8;;
23360;SDS011;11852;50.082;18.554;2023-01-09T04:59:34;50.6;;;30.6;;
23360;SDS011;11852;50.082;18.554;2023-01-09T05:00:42;43.5;;;27.7;;
23360;SDS011;11852;50.082;18.554;2023-01-09T05:01:49;46.8;;;28.2;;
23360;SDS011;11852;50.082;18.554;2023-01-09T05:02:56;42.9;;;25.4;;
23360;SDS011;11852;50.082;18.554;2023-01-09T05:04:03;40.9;;;25.8;;
23360;SDS011;11852;50.082;18.554;2023-01-09T05:05:10;42.9;;;26.8;;
23360;SDS011;11852;50.082;18.554;2023-01-09T05:06:18;41.2;;;25.4;;
23360;SDS011;11852;50.082;18.554;2023-01-09T05:07:25;43.8;;;26.6;;
23360;SDS011;11852;50.082;18.554;2023-01-09T05:08:32;41.3;;;27.0;;
23360;SDS011;11852;50.082;18.554;2023-01-09T05:09:39;47.4;;;28.4;;
23360;SDS011;11852;50.082;18.554;2023-01-09T05:10:46;45.3;;;28.0;;
23360;SDS011;11852;50.082;18.554;2023-01-09T05:11:53;46.6;;;28.1;;
23360;SDS011;11852;50.082;18.554;2023-01-09T05:13:00;47.2;;;30.2;;
23360;SDS011;11852;50.082;18.554;2023-01-09T05:14:08;47.4;;;28.7;;
23360;SDS011;11852;50.082;18.554;2023-01-09T05:15:15;49.5;;;30.5;;
23360;SDS011;11852;50.082;18.554;2023-01-09T05:16:22;46.0;;;28.1;;
23360;SDS011;11852;50.082;18.554;2023-01-09T05:17:29;47.0;;;29.3;;
23360;SDS011;11852;50.082;18.554;2023-01-09T05:18:36;45.3;;;27.5;;
23360;SDS011;11852;50.082;18.554;2023-01-09T05:19:43;45.5;;;28.0;;
23360;SDS011;11852;50.082;18.554;2023-01-09T05:20:50;43.3;;;26.1;;
23360;SDS011;11852;50.082;18.554;2023-01-09T05:21:57;39.9;;;24.9;;
23360;SDS011;11852;50.082;18.554;2023-01-09T05:23:04;41.8;;;26.0;;
23360;SDS011;11852;50.082;18.554;2023-01-09T05:24:12;39.9;;;25.0;;
23360;SDS011;11852;50.082;18.554;2023-01-09T05:25:19;37.4;;;24.6;;
23360;SDS011;11852;50.082;18.554;2023-01-09T05:26:26;35.3;;;22.1;;
23360;SDS011;11852;50.082;18.554;2023-01-09T05:27:33;35.1;;;22.1;;
23360;SDS011;11852;50.082;18.554;2023-01-09T05:28:40;33.8;;;21.2;;
23360;SDS011;11852;50.082;18.554;2023-01-09T05:29:48;32.9;;;20.6;;
23360;SDS011;11852;50.082;18.554;2023-01-09T05:30:55;30.5;;;19.1;;
23360;SDS011;11852;50.082;18.554;2023-01-09T05:32:02;32.6;;;19.9;;
23360;SDS011;11852;50.082;18.554;2023-01-09T05:33:09;31.3;;;18.9;;
23360;SDS011;11852;50.082;18.554;2023-01-09T05:34:16;27.2;;;17.2;;
23360;SDS011;11852;50.082;18.554;2023-01-09T05:35:23;30.9;;;19.2;;
23360;SDS011;11852;50.082;18.554;2023-01-09T05:36:31;29.6;;;18.8;;
23360;SDS011;11852;50.082;18.554;2023-01-09T05:37:38;31.1;;;18.1;;
23360;SDS011;11852;50.082;18.554;2023-01-09T05:38:45;29.0;;;18.8;;
23360;SDS011;11852;50.082;18.554;2023-01-09T05:39:53;30.1;;;18.1;;
23360;SDS011;11852;50.082;18.554;2023-01-09T05:41:00;32.4;;;19.5;;
23360;SDS011;11852;50.082;18.554;2023-01-09T05:42:07;32.1;;;19.9;;
23360;SDS011;11852;50.082;18.554;2023-01-09T05:43:14;31.3;;;19.3;;
23360;SDS011;11852;50.082;18.554;2023-01-09T05:44:21;31.7;;;18.9;;
23360;SDS011;11852;50.082;18.554;2023-01-09T05:45:28;31.1;;;20.6;;
23360;SDS011;11852;50.082;18.554;2023-01-09T05:46:35;35.8;;;20.6;;
23360;SDS011;11852;50.082;18.554;2023-01-09T05:47:43;31.6;;;19.2;;
23360;SDS011;11852;50.082;18.554;2023-01-09T05:48:50;32.4;;;20.3;;
23360;SDS011;11852;50.082;18.554;2023-01-09T05:49:57;34.0;;;20.9;;
23360;SDS011;11852;50.082;18.554;2023-01-09T05:51:04;31.9;;;20.3;;
23360;SDS011;11852;50.082;18.554;2023-01-09T05:52:11;30.9;;;19.6;;
23360;SDS011;11852;50.082;18.554;2023-01-09T05:53:18;32.1;;;19.8;;
23360;SDS011;11852;50.082;18.554;2023-01-09T05:54:26;32.6;;;19.7;;
23360;SDS011;11852;50.082;18.554;2023-01-09T05:55:33;29.7;;;18.8;;
23360;SDS011;11852;50.082;18.554;2023-01-09T05:56:40;28.8;;;18.6;;
23360;SDS011;11852;50.082;18.554;2023-01-09T05:57:47;29.8;;;18.2;;
23360;SDS011;11852;50.082;18.554;2023-01-09T05:58:54;30.0;;;18.1;;
23360;SDS011;11852;50.082;18.554;2023-01-09T06:00:01;27.3;;;17.6;;
23360;SDS011;11852;50.082;18.554;2023-01-09T06:01:08;31.1;;;18.3;;
23360;SDS011;11852;50.082;18.554;2023-01-09T06:02:15;28.8;;;17.8;;
23360;SDS011;11852;50.082;18.554;2023-01-09T06:03:23;25.0;;;16.0;;
23360;SDS011;11852;50.082;18.554;2023-01-09T06:04:30;24.4;;;15.1;;
23360;SDS011;11852;50.082;18.554;2023-01-09T06:05:37;26.5;;;15.1;;
23360;SDS011;11852;50.082;18.554;2023-01-09T06:06:44;27.4;;;15.6;;
23360;SDS011;11852;50.082;18.554;2023-01-09T06:07:51;26.0;;;15.6;;
23360;SDS011;11852;50.082;18.554;2023-01-09T06:08:58;26.3;;;16.4;;
23360;SDS011;11852;50.082;18.554;2023-01-09T06:10:09;27.3;;;16.2;;
23360;SDS011;11852;50.082;18.554;2023-01-09T06:11:13;26.9;;;15.7;;
23360;SDS011;11852;50.082;18.554;2023-01-09T06:12:20;24.1;;;14.5;;
23360;SDS011;11852;50.082;18.554;2023-01-09T06:13:28;23.9;;;15.2;;
23360;SDS011;11852;50.082;18.554;2023-01-09T06:14:35;26.4;;;15.4;;
23360;SDS011;11852;50.082;18.554;2023-01-09T06:15:42;25.7;;;15.6;;
23360;SDS011;11852;50.082;18.554;2023-01-09T06:16:49;24.5;;;15.7;;
23360;SDS011;11852;50.082;18.554;2023-01-09T06:17:56;26.2;;;15.5;;
23360;SDS011;11852;50.082;18.554;2023-01-09T06:19:03;25.8;;;15.6;;
23360;SDS011;11852;50.082;18.554;2023-01-09T06:20:10;26.0;;;15.7;;
23360;SDS011;11852;50.082;18.554;2023-01-09T06:21:17;24.9;;;15.2;;
23360;SDS011;11852;50.082;18.554;2023-01-09T06:22:24;24.2;;;14.3;;
23360;SDS011;11852;50.082;18.554;2023-01-09T06:23:32;26.6;;;15.0;;
23360;SDS011;11852;50.082;18.554;2023-01-09T06:24:39;27.7;;;16.3;;
23360;SDS011;11852;50.082;18.554;2023-01-09T06:25:46;25.3;;;15.2;;
23360;SDS011;11852;50.082;18.554;2023-01-09T06:26:53;27.2;;;15.5;;
23360;SDS011;11852;50.082;18.554;2023-01-09T06:28:00;29.6;;;16.7;;
23360;SDS011;11852;50.082;18.554;2023-01-09T06:29:07;29.1;;;15.4;;
23360;SDS011;11852;50.082;18.554;2023-01-09T06:30:14;28.9;;;17.5;;
23360;SDS011;11852;50.082;18.554;2023-01-09T06:31:22;28.0;;;16.4;;
23360;SDS011;11852;50.082;18.554;2023-01-09T06:32:29;28.2;;;16.7;;
23360;SDS011;11852;50.082;18.554;2023-01-09T06:33:36;28.2;;;16.7;;
23360;SDS011;11852;50.082;18.554;2023-01-09T06:34:43;28.2;;;16.7;;
23360;SDS011;11852;50.082;18.554;2023-01-09T06:35:50;27.3;;;15.4;;
23360;SDS011;11852;50.082;18.554;2023-01-09T06:36:57;25.6;;;15.3;;
23360;SDS011;11852;50.082;18.554;2023-01-09T06:38:04;24.2;;;14.3;;
23360;SDS011;11852;50.082;18.554;2023-01-09T06:39:11;24.3;;;14.4;;
23360;SDS011;11852;50.082;18.554;2023-01-09T06:40:18;22.0;;;13.5;;
23360;SDS011;11852;50.082;18.554;2023-01-09T06:41:26;20.7;;;11.9;;
23360;SDS011;11852;50.082;18.554;2023-01-09T06:42:33;21.3;;;11.7;;
23360;SDS011;11852;50.082;18.554;2023-01-09T06:43:40;18.7;;;11.3;;
23360;SDS011;11852;50.082;18.554;2023-01-09T06:44:47;17.9;;;10.5;;
23360;SDS011;11852;50.082;18.554;2023-01-09T06:45:55;18.8;;;11.0;;
23360;SDS011;11852;50.082;18.554;2023-01-09T06:47:02;18.0;;;10.6;;
23360;SDS011;11852;50.082;18.554;2023-01-09T06:48:09;15.6;;;10.2;;
23360;SDS011;11852;50.082;18.554;2023-01-09T06:49:16;13.3;;;8.3;;
23360;SDS011;11852;50.082;18.554;2023-01-09T06:50:23;15.1;;;8.1;;
23360;SDS011;11852;50.082;18.554;2023-01-09T06:51:30;13.5;;;8.2;;
23360;SDS011;11852;50.082;18.554;2023-01-09T06:52:38;13.1;;;8.4;;
23360;SDS011;11852;50.082;18.554;2023-01-09T06:53:45;12.3;;;7.7;;
23360;SDS011;11852;50.082;18.554;2023-01-09T06:54:52;12.9;;;7.4;;
23360;SDS011;11852;50.082;18.554;2023-01-09T06:55:59;13.7;;;7.9;;
23360;SDS011;11852;50.082;18.554;2023-01-09T06:57:06;12.7;;;7.9;;
23360;SDS011;11852;50.082;18.554;2023-01-09T06:58:14;13.2;;;7.9;;
23360;SDS011;11852;50.082;18.554;2023-01-09T06:59:21;14.0;;;7.9;;
23360;SDS011;11852;50.082;18.554;2023-01-09T07:00:28;13.8;;;8.4;;
23360;SDS011;11852;50.082;18.554;2023-01-09T07:01:35;16.2;;;7.6;;
23360;SDS011;11852;50.082;18.554;2023-01-09T07:02:42;13.6;;;7.5;;
23360;SDS011;11852;50.082;18.554;2023-01-09T07:03:49;15.1;;;8.3;;
23360;SDS011;11852;50.082;18.554;2023-01-09T07:04:56;15.2;;;8.4;;
23360;SDS011;11852;50.082;18.554;2023-01-09T07:06:04;15.2;;;8.4;;
23360;SDS011;11852;50.082;18.554;2023-01-09T07:07:11;15.2;;;7.8;;
23360;SDS011;11852;50.082;18.554;2023-01-09T07:08:18;14.5;;;7.2;;
23360;SDS011;11852;50.082;18.554;2023-01-09T07:09:25;13.5;;;6.8;;
23360;SDS011;11852;50.082;18.554;2023-01-09T07:10:32;13.9;;;7.6;;
23360;SDS011;11852;50.082;18.554;2023-01-09T07:11:39;14.6;;;7.8;;
23360;SDS011;11852;50.082;18.554;2023-01-09T07:12:46;14.6;;;8.4;;
23360;SDS011;11852;50.082;18.554;2023-01-09T07:13:53;14.4;;;7.2;;
23360;SDS011;11852;50.082;18.554;2023-01-09T07:15:00;14.8;;;7.2;;
23360;SDS011;11852;50.082;18.554;2023-01-09T07:16:07;14.5;;;7.5;;
23360;SDS011;11852;50.082;18.554;2023-01-09T07:17:14;14.4;;;8.1;;
23360;SDS011;11852;50.082;18.554;2023-01-09T07:18:22;19.6;;;9.0;;